createdAt,value
2022-11-26T00:03:28.506Z,16.27
2022-11-26T00:08:35.551Z,21.65
2022-11-26T00:13:38.136Z,19.27
2022-11-26T00:18:40.701Z,20.80
2022-11-26T00:23:46.590Z,20.92
2022-11-26T00:28:52.512Z,17.90
2022-11-26T00:33:55.371Z,16.23
2022-11-26T00:39:03.013Z,17.05
2022-11-26T00:44:14.580Z,22.30
2022-11-26T00:49:19.435Z,18.17
2022-11-26T00:54:24.283Z,17.88
2022-11-26T00:59:26.972Z,20.92
2022-11-26T01:04:29.654Z,19.90
2022-11-26T01:09:34.173Z,15.23
2022-11-26T01:19:39.638Z,15.98
2022-11-26T01:24:43.563Z,15.40
2022-11-26T01:29:46.257Z,18.27
2022-11-26T01:34:48.977Z,18.98
2022-11-26T01:39:52.974Z,18.52
2022-11-26T01:44:55.565Z,20.10
2022-11-26T01:50:35.738Z,17.63
2022-11-26T01:55:42.673Z,18.02
2022-11-26T02:00:45.637Z,18.27
2022-11-26T02:05:57.180Z,17.45
2022-11-26T02:11:03.572Z,17.33
2022-11-26T02:16:17.376Z,16.17
2022-11-26T02:21:27.483Z,11.10
2022-11-26T02:27:08.477Z,21.20
2022-11-26T02:32:17.521Z,17.45
2022-11-26T02:37:26.388Z,17.60
2022-11-26T02:42:33.336Z,18.90
2022-11-26T02:47:40.817Z,19.45
2022-11-26T02:52:44.448Z,19.45
2022-11-26T02:57:49.352Z,18.23
2022-11-26T03:02:59.588Z,17.42
2022-11-26T03:08:03.787Z,17.55
2022-11-26T03:13:06.592Z,11.00
2022-11-26T03:18:10.592Z,17.80
2022-11-26T03:23:13.308Z,13.13
2022-11-26T03:28:15.888Z,19.52
2022-11-26T03:33:20.163Z,19.50
2022-11-26T03:38:22.821Z,12.07
2022-11-26T03:43:25.550Z,21.20
2022-11-26T03:48:29.463Z,17.58
2022-11-26T03:53:32.123Z,17.13
2022-11-26T03:58:34.690Z,20.00
2022-11-26T04:03:39.182Z,17.27
2022-11-26T04:08:41.783Z,21.17
2022-11-26T04:13:44.459Z,17.70
2022-11-26T04:18:48.420Z,15.27
2022-11-26T04:23:51.107Z,24.98
2022-11-26T04:28:53.723Z,22.23
2022-11-26T04:33:57.618Z,18.00
2022-11-26T04:39:00.220Z,16.48
2022-11-26T04:44:02.856Z,18.45
2022-11-26T04:49:06.923Z,19.48
2022-11-26T04:54:13.024Z,17.38
2022-11-26T04:59:15.970Z,21.45
2022-11-26T05:04:20.208Z,18.30
2022-11-26T05:09:23.190Z,12.43
2022-11-26T05:14:26.086Z,21.23
2022-11-26T05:19:30.104Z,19.45
2022-11-26T05:24:32.686Z,24.48
2022-11-26T05:29:35.299Z,18.02
2022-11-26T05:34:39.340Z,18.55
2022-11-26T05:39:41.999Z,16.58
2022-11-26T05:44:44.554Z,24.38
2022-11-26T05:49:48.437Z,20.08
2022-11-26T05:54:51.080Z,17.60
2022-11-26T05:59:53.710Z,21.02
2022-11-26T06:04:57.637Z,21.40
2022-11-26T06:10:00.280Z,25.13
2022-11-26T06:15:02.923Z,19.40
2022-11-26T06:20:08.218Z,20.02
2022-11-26T06:25:13.773Z,20.80
2022-11-26T06:30:16.447Z,21.17
2022-11-26T06:35:21.630Z,14.73
2022-11-26T06:40:24.283Z,16.25
2022-11-26T06:45:27.111Z,21.33
2022-11-26T06:50:31.093Z,18.95
2022-11-26T06:55:33.681Z,22.90
2022-11-26T07:00:36.269Z,19.63
2022-11-26T07:05:40.155Z,21.40
2022-11-26T07:10:49.153Z,16.67
2022-11-26T07:15:52.099Z,21.80
2022-11-26T07:20:56.054Z,17.50
2022-11-26T07:25:59.415Z,17.88
2022-11-26T07:31:04.887Z,18.42
2022-11-26T07:36:15.055Z,19.85
2022-11-26T07:41:20.056Z,21.05
2022-11-26T07:46:25.366Z,19.65
2022-11-26T07:51:31.505Z,23.23
2022-11-26T07:56:34.736Z,28.42
2022-11-26T08:01:40.584Z,21.35
2022-11-26T08:06:45.668Z,20.67
2022-11-26T08:11:48.545Z,21.27
2022-11-26T08:16:51.236Z,25.70
2022-11-26T08:21:55.192Z,26.30
2022-11-26T08:27:00.800Z,25.02
2022-11-26T08:32:03.570Z,20.77
2022-11-26T08:37:07.451Z,21.27
2022-11-26T08:42:10.016Z,18.65
2022-11-26T08:47:14.210Z,22.35
2022-11-26T08:52:18.120Z,16.63
2022-11-26T08:57:20.744Z,18.88
2022-11-26T09:02:23.480Z,22.02
2022-11-26T09:07:27.435Z,20.77
2022-11-26T09:12:29.984Z,21.08
2022-11-26T09:17:32.562Z,17.23
2022-11-26T09:22:36.825Z,18.08
2022-11-26T09:27:39.542Z,16.60
2022-11-26T09:32:42.138Z,15.70
2022-11-26T09:37:50.166Z,20.63
2022-11-26T09:43:06.895Z,18.63
2022-11-26T09:48:16.284Z,15.68
2022-11-26T09:53:29.435Z,20.00
2022-11-26T09:58:41.566Z,22.60
2022-11-26T10:03:44.203Z,17.70
2022-11-26T10:09:04.681Z,14.70
2022-11-26T10:14:19.718Z,14.80
2022-11-26T10:19:31.533Z,13.93
2022-11-26T10:24:41.895Z,16.13
2022-11-26T10:29:53.117Z,9.98
2022-11-26T10:34:57.380Z,10.18
2022-11-26T10:40:17.139Z,13.98
2022-11-26T10:45:22.044Z,15.85
2022-11-26T10:55:52.697Z,14.18
2022-11-26T11:01:02.184Z,14.85
2022-11-26T11:06:13.711Z,15.93
2022-11-26T11:11:21.564Z,16.45
2022-11-26T11:16:28.516Z,13.48
2022-11-26T11:21:34.740Z,10.10
2022-11-26T11:26:44.269Z,12.07
2022-11-26T11:31:48.501Z,9.38
2022-11-26T11:37:02.482Z,9.02
2022-11-26T11:42:23.641Z,8.05
2022-11-26T11:47:35.407Z,10.05
2022-11-26T11:52:54.539Z,10.30
2022-11-26T11:58:14.485Z,11.48
2022-11-26T12:03:49.841Z,10.63
2022-11-26T12:09:03.490Z,9.30
2022-11-26T12:14:14.495Z,7.13
2022-11-26T12:19:24.568Z,9.02
2022-11-26T12:24:44.919Z,6.47
2022-11-26T12:29:54.190Z,5.93
2022-11-26T12:34:59.149Z,6.18
2022-11-26T12:40:05.632Z,8.43
2022-11-26T12:45:18.570Z,10.02
2022-11-26T12:50:27.227Z,6.93
2022-11-26T12:55:37.161Z,9.52
2022-11-26T13:00:44.450Z,7.90
2022-11-26T13:05:57.133Z,6.13
2022-11-26T13:11:12.476Z,6.30
2022-11-26T13:16:24.539Z,8.50
2022-11-26T13:21:39.509Z,9.20
2022-11-26T13:26:57.742Z,8.88
2022-11-26T13:32:20.231Z,9.35
2022-11-26T13:37:42.553Z,7.07
2022-11-26T13:43:03.108Z,8.70
2022-11-26T13:48:11.756Z,7.55
2022-11-26T13:53:25.082Z,9.82
2022-11-26T13:58:33.818Z,12.90
2022-11-26T14:03:48.409Z,7.07
2022-11-26T14:14:33.550Z,9.93
2022-11-26T14:20:00.846Z,7.22
2022-11-26T14:25:06.075Z,9.40
2022-11-26T14:30:22.597Z,8.13
2022-11-26T14:35:33.587Z,6.93
2022-11-26T14:40:38.803Z,6.60
2022-11-26T14:45:47.063Z,7.45
2022-11-26T14:50:49.813Z,11.07
2022-11-26T14:55:53.995Z,10.75
2022-11-26T15:01:18.961Z,9.75
2022-11-26T15:06:26.057Z,10.70
2022-11-26T15:11:28.731Z,14.85
2022-11-26T15:16:37.925Z,9.38
2022-11-26T15:21:41.918Z,12.43
2022-11-26T15:26:47.492Z,10.85
2022-11-26T15:31:51.405Z,13.93
2022-11-26T15:36:54.070Z,13.73
2022-11-26T15:42:01.535Z,14.00
2022-11-26T15:47:06.765Z,10.93
2022-11-26T15:52:13.108Z,9.60
2022-11-26T15:57:23.923Z,10.07
2022-11-26T16:02:31.272Z,10.75
2022-11-26T16:07:34.845Z,15.68
2022-11-26T16:12:40.665Z,12.93
2022-11-26T16:17:44.733Z,12.43
2022-11-26T16:22:52.957Z,17.73
2022-11-26T16:28:10.155Z,14.82
2022-11-26T16:33:34.489Z,18.50
2022-11-26T16:38:37.796Z,10.77
2022-11-26T16:44:39.764Z,13.73
2022-11-26T16:55:36.945Z,16.90
2022-11-26T17:01:14.319Z,13.15
2022-11-26T17:07:03.663Z,19.15
2022-11-26T17:12:54.553Z,18.35
2022-11-26T17:30:51.436Z,21.83
2022-11-26T17:42:22.751Z,23.52
2022-11-26T17:57:52.686Z,18.95
2022-11-26T18:03:02.323Z,23.23
2022-11-26T18:08:07.121Z,21.88
2022-11-26T18:13:10.526Z,21.23
2022-11-26T18:25:20.033Z,20.42
2022-11-26T18:43:16.076Z,27.27
2022-11-26T19:01:33.500Z,31.17
2022-11-26T19:06:36.127Z,26.85
2022-11-26T19:11:38.804Z,22.67
2022-11-26T19:16:49.334Z,24.48
2022-11-26T19:21:55.520Z,24.33
2022-11-26T19:27:00.550Z,27.60
2022-11-26T19:32:04.473Z,21.52
2022-11-26T19:37:07.081Z,22.58
2022-11-26T19:42:09.854Z,25.35
2022-11-26T19:47:13.739Z,24.67
2022-11-26T19:52:16.304Z,25.40
2022-11-26T19:57:19.177Z,29.35
2022-11-26T20:02:23.203Z,25.35
2022-11-26T20:07:25.861Z,23.02
2022-11-26T20:12:28.551Z,23.85
2022-11-26T20:17:32.510Z,24.08
2022-11-26T20:22:37.446Z,15.98
2022-11-26T20:27:40.242Z,26.80
2022-11-26T20:32:45.418Z,26.17
2022-11-26T20:37:48.085Z,19.63
2022-11-26T20:42:51.392Z,24.48
2022-11-26T20:47:57.120Z,25.52
2022-11-26T20:52:59.784Z,23.92
2022-11-26T20:58:02.377Z,36.83
2022-11-26T21:03:06.355Z,28.25
2022-11-26T21:08:09.022Z,19.55
2022-11-26T21:13:14.452Z,22.33
2022-11-26T21:18:18.383Z,21.27
2022-11-26T21:23:20.932Z,17.63
2022-11-26T21:28:23.521Z,23.42
2022-11-26T21:33:27.409Z,22.42
2022-11-26T21:38:29.951Z,14.40
2022-11-26T21:43:32.770Z,25.58
2022-11-26T21:48:36.711Z,17.83
2022-11-26T21:53:39.580Z,18.63
2022-11-26T21:58:42.457Z,22.05
2022-11-26T22:03:49.987Z,18.00
2022-11-26T22:08:52.937Z,18.75
2022-11-26T22:13:56.149Z,24.45
2022-11-26T22:19:01.470Z,24.38
2022-11-26T22:24:05.324Z,22.88
2022-11-26T22:29:07.908Z,15.23
2022-11-26T22:34:14.432Z,18.35
2022-11-26T22:39:20.155Z,14.35
2022-11-26T22:44:23.055Z,16.95
2022-11-26T22:49:27.406Z,18.55
2022-11-26T22:54:29.943Z,14.18
2022-11-26T22:59:32.483Z,19.48
2022-11-26T23:04:36.383Z,17.77
2022-11-26T23:09:43.761Z,14.48
2022-11-26T23:14:49.057Z,21.10
2022-11-26T23:19:52.950Z,17.10
2022-11-26T23:24:55.551Z,12.55
2022-11-26T23:29:58.349Z,18.58
2022-11-26T23:35:02.958Z,15.05
2022-11-26T23:40:07.402Z,15.45
2022-11-26T23:45:10.775Z,15.50
2022-11-26T23:50:15.561Z,14.23
2022-11-26T23:55:18.313Z,14.48
